Time;durP1;ratioP1;P1;durP2;ratioP2;P2;SDS_P1;SDS_P2;PMS_P1;PMS_P2;Temp;Humidity;BMP_temperature;BMP_pressure;BME280_temperature;BME280_humidity;BME280_pressure;Samples;Min_cycle;Max_cycle;Signal;HPM_P1;HPM_P2
2021/08/07 00:02:17;;;;;;;9.38;5.45;;;;;;;26.67;59.58;100458.89;1677133;85;21083;-49
2021/08/07 00:04:43;;;;;;;7.55;5.75;;;;;;;26.67;59.27;100461.56;1677208;85;21543;-49
2021/08/07 00:07:12;;;;;;;7.47;5.58;;;;;;;26.69;59.13;100464.93;1677299;85;21051;-48
2021/08/07 00:09:38;;;;;;;5.97;5.37;;;;;;;26.72;58.62;100473.19;1677222;85;21059;-49
2021/08/07 00:12:06;;;;;;;6.10;5.00;;;;;;;26.78;58.17;100472.13;1677223;85;21031;-49
2021/08/07 00:14:33;;;;;;;5.47;4.75;;;;;;;26.81;57.77;100467.00;1677238;85;21003;-49
2021/08/07 00:17:00;;;;;;;8.63;5.15;;;;;;;26.82;57.55;100469.52;1678167;85;21538;-49
2021/08/07 00:19:26;;;;;;;5.42;4.42;;;;;;;26.82;57.13;100472.19;1677310;85;21027;-48
2021/08/07 00:21:53;;;;;;;4.35;3.47;;;;;;;26.79;56.69;100487.14;1677418;85;21539;-49
2021/08/07 00:24:21;;;;;;;6.08;4.90;;;;;;;26.72;56.72;100497.20;1677585;85;21027;-48
2021/08/07 00:26:47;;;;;;;5.85;5.12;;;;;;;26.71;57.02;100496.33;1677540;85;20967;-48
2021/08/07 00:29:15;;;;;;;10.30;5.20;;;;;;;26.71;57.45;100499.51;1676716;85;21074;-48
2021/08/07 00:31:42;;;;;;;8.50;5.47;;;;;;;26.70;57.69;100502.66;1640076;85;21047;-49
2021/08/07 00:34:10;;;;;;;6.17;5.40;;;;;;;26.68;57.80;100507.30;1677414;85;21027;-49
2021/08/07 00:36:39;;;;;;;5.35;4.90;;;;;;;26.70;58.21;100507.16;1675090;85;21079;-49
2021/08/07 00:39:06;;;;;;;7.70;5.30;;;;;;;26.71;58.51;100491.50;1677250;85;21035;-49
2021/08/07 00:41:33;;;;;;;7.08;5.20;;;;;;;26.71;58.55;100488.31;1677470;85;21042;-49
2021/08/07 00:44:00;;;;;;;7.65;5.55;;;;;;;26.68;58.75;100484.61;1660652;84;21608;-48
2021/08/07 00:46:29;;;;;;;6.30;5.03;;;;;;;26.73;58.79;100477.03;1690219;84;21055;-48
2021/08/07 00:48:57;;;;;;;5.47;4.70;;;;;;;26.75;58.89;100478.25;1678819;84;21031;-48
2021/08/07 00:51:24;;;;;;;7.80;5.70;;;;;;;26.76;58.87;100471.91;1665588;85;21502;-49
2021/08/07 00:53:53;;;;;;;7.65;5.50;;;;;;;26.78;58.92;100472.61;1677325;85;21050;-49
2021/08/07 00:56:22;;;;;;;6.33;4.92;;;;;;;26.79;58.93;100477.80;1664210;85;21534;-48
2021/08/07 00:58:50;;;;;;;5.42;4.78;;;;;;;26.80;59.56;100491.51;1674574;85;21495;-49
2021/08/07 01:01:18;;;;;;;7.33;5.25;;;;;;;26.81;59.29;100496.36;1653811;85;20988;-48
2021/08/07 01:03:55;;;;;;;6.47;5.08;;;;;;;26.82;59.41;100514.05;1677279;85;20999;-48
2021/08/07 01:06:47;;;;;;;5.08;4.55;;;;;;;26.82;59.03;100512.23;1659954;84;21056;-48
2021/08/07 01:09:26;;;;;;;4.83;4.33;;;;;;;26.83;58.94;100513.08;1666095;85;21504;-48
2021/08/07 01:12:03;;;;;;;4.60;3.60;;;;;;;26.83;58.89;100524.58;1665503;84;21098;-49
2021/08/07 01:14:36;;;;;;;6.10;5.00;;;;;;;26.83;58.61;100511.23;1662085;85;21007;-48
2021/08/07 01:17:11;;;;;;;5.17;4.62;;;;;;;26.83;59.18;100513.90;1676351;85;21514;-48
2021/08/07 01:19:59;;;;;;;5.67;4.55;;;;;;;26.84;59.27;100512.93;1654186;85;21043;-49
2021/08/07 01:22:38;;;;;;;5.47;4.15;;;;;;;26.84;58.98;100507.59;1676847;85;21027;-48
2021/08/07 01:25:08;;;;;;;4.30;3.90;;;;;;;26.84;58.47;100502.25;1610995;88;21041;-48
2021/08/07 01:27:38;;;;;;;5.20;3.98;;;;;;;26.83;58.23;100492.55;1579079;89;21050;-49
2021/08/07 01:30:10;;;;;;;5.40;4.28;;;;;;;26.82;57.99;100485.53;1564076;91;21156;-48
2021/08/07 01:32:39;;;;;;;5.33;4.08;;;;;;;26.81;58.04;100495.03;1563160;92;21121;-49
2021/08/07 01:35:08;;;;;;;6.28;4.20;;;;;;;26.81;58.36;100499.03;1563112;92;21098;-49
2021/08/07 01:37:36;;;;;;;5.77;4.30;;;;;;;26.82;58.67;100501.55;1563557;92;21049;-48
2021/08/07 01:40:06;;;;;;;6.40;4.40;;;;;;;26.81;58.94;100507.86;1496256;95;21093;-49
2021/08/07 01:42:44;;;;;;;8.68;5.40;;;;;;;26.81;59.11;100516.39;1441167;99;21181;-49
2021/08/07 01:45:13;;;;;;;6.87;5.15;;;;;;;26.80;59.96;100510.20;1437490;99;21104;-49
2021/08/07 01:47:50;;;;;;;7.40;5.53;;;;;;;26.78;60.38;100504.16;1436652;99;21613;-49
2021/08/07 01:50:29;;;;;;;7.42;5.87;;;;;;;26.75;60.50;100511.10;1434631;99;21197;-49
2021/08/07 01:53:09;;;;;;;5.58;4.90;;;;;;;26.71;60.67;100500.33;1436912;99;21104;-49
2021/08/07 01:55:59;;;;;;;6.05;5.28;;;;;;;26.69;60.65;100499.62;1415378;101;21109;-49
2021/08/07 01:58:33;;;;;;;7.45;5.53;;;;;;;26.65;60.90;100493.41;1409098;100;21201;-49
2021/08/07 02:01:01;;;;;;;8.23;5.25;;;;;;;26.64;60.74;100493.89;1323618;106;21199;-49
2021/08/07 02:03:32;;;;;;;6.60;4.85;;;;;;;26.61;60.81;100508.35;1297137;109;21268;-49
2021/08/07 02:06:01;;;;;;;6.05;4.22;;;;;;;26.61;60.95;100516.84;1298806;109;21255;-49
2021/08/07 02:08:28;;;;;;;8.00;4.70;;;;;;;26.59;60.74;100513.47;1318567;107;21331;-49
2021/08/07 02:10:55;;;;;;;6.72;4.78;;;;;;;26.59;61.18;100513.47;1327916;107;21654;-50
2021/08/07 02:13:22;;;;;;;6.67;5.28;;;;;;;26.57;61.34;100512.77;1290962;107;21216;-49
2021/08/07 02:15:52;;;;;;;5.95;4.92;;;;;;;26.53;61.20;100502.03;1328633;107;21195;-50
2021/08/07 02:18:26;;;;;;;7.75;5.17;;;;;;;26.51;60.96;100494.66;1336612;106;21727;-49
2021/08/07 02:20:54;;;;;;;7.50;4.67;;;;;;;26.46;60.73;100502.27;1330543;105;21176;-50
2021/08/07 02:23:21;;;;;;;8.75;4.92;;;;;;;26.44;61.00;100500.23;1364281;104;21138;-49
2021/08/07 02:25:54;;;;;;;5.58;4.53;;;;;;;26.41;60.69;100508.49;1346383;105;21158;-50
2021/08/07 02:28:23;;;;;;;8.13;4.92;;;;;;;26.40;60.70;100504.98;1352616;105;21144;-51
2021/08/07 02:30:51;;;;;;;5.53;4.87;;;;;;;26.39;61.13;100489.12;1368685;103;21178;-50
2021/08/07 02:33:21;;;;;;;5.58;4.60;;;;;;;26.38;61.08;100480.27;1373670;103;21193;-50
2021/08/07 02:35:51;;;;;;;5.05;4.28;;;;;;;26.38;61.05;100468.74;1366917;104;21187;-50
2021/08/07 02:38:22;;;;;;;7.62;4.78;;;;;;;26.38;60.60;100464.73;1391516;99;21203;-50
2021/08/07 02:40:48;;;;;;;4.65;4.22;;;;;;;26.39;61.01;100469.11;1413998;100;21140;-51
2021/08/07 02:43:17;;;;;;;4.35;3.95;;;;;;;26.40;60.90;100484.97;1427892;98;21143;-49
2021/08/07 02:45:44;;;;;;;5.25;4.15;;;;;;;26.41;60.56;100500.49;1416458;98;21195;-50
2021/08/07 02:48:13;;;;;;;7.05;4.65;;;;;;;26.41;60.28;100511.16;1442165;98;21163;-49
2021/08/07 02:50:40;;;;;;;5.97;3.67;;;;;;;26.43;60.25;100515.87;1439380;98;21101;-48
2021/08/07 02:53:10;;;;;;;5.20;3.30;;;;;;;26.41;60.08;100515.16;1483021;95;21145;-48
2021/08/07 02:55:38;;;;;;;3.62;3.33;;;;;;;26.39;59.46;100525.14;1500623;94;21096;-47
2021/08/07 02:58:08;;;;;;;4.92;3.65;;;;;;;26.40;59.37;100529.47;1538731;90;21180;-48
2021/08/07 03:00:38;;;;;;;6.20;4.90;;;;;;;26.38;59.36;100532.29;1567373;88;21641;-48
2021/08/07 03:03:08;;;;;;;7.87;6.05;;;;;;;26.38;60.56;100544.78;1606715;88;22389;-52
2021/08/07 03:05:36;;;;;;;6.50;5.53;;;;;;;26.38;61.33;100543.44;1732358;82;20967;-50
2021/08/07 03:08:05;;;;;;;6.05;5.37;;;;;;;26.37;61.57;100543.11;1691238;83;21581;-50
2021/08/07 03:10:33;;;;;;;5.55;5.05;;;;;;;26.34;61.63;100550.04;1686485;84;21632;-50
2021/08/07 03:13:02;;;;;;;5.10;4.60;;;;;;;26.34;61.65;100551.38;1699479;83;21558;-50
2021/08/07 03:15:32;;;;;;;6.87;5.00;;;;;;;26.33;61.04;100559.04;1692508;83;21047;-50
2021/08/07 03:17:59;;;;;;;5.60;4.78;;;;;;;26.31;61.20;100567.67;1690797;83;21018;-49
2021/08/07 03:20:33;;;;;;;5.90;4.45;;;;;;;26.29;61.00;100573.64;1689602;82;21050;-50
2021/08/07 03:23:05;;;;;;;7.28;4.60;;;;;;;26.28;60.76;100571.94;1732572;82;21471;-49
2021/08/07 03:25:32;;;;;;;6.92;5.00;;;;;;;26.26;60.73;100576.08;1727039;82;21085;-49
2021/08/07 03:28:01;;;;;;;7.30;5.17;;;;;;;26.25;60.69;100571.75;1727475;82;21581;-49
2021/08/07 03:30:29;;;;;;;6.55;5.15;;;;;;;26.23;60.45;100576.86;1725990;82;21522;-49
2021/08/07 03:32:56;;;;;;;6.70;4.92;;;;;;;26.23;60.95;100592.86;1731268;82;21502;-49
2021/08/07 03:35:23;;;;;;;6.25;5.10;;;;;;;26.21;60.93;100598.82;1729792;82;21042;-49
2021/08/07 03:37:50;;;;;;;6.97;4.97;;;;;;;26.19;61.04;100614.12;1725305;82;21021;-48
2021/08/07 03:40:17;;;;;;;6.70;5.17;;;;;;;26.19;60.79;100607.45;1735436;82;21486;-49
2021/08/07 03:42:46;;;;;;;6.65;5.30;;;;;;;26.19;60.70;100606.12;1734196;82;21510;-49
2021/08/07 03:45:14;;;;;;;6.53;4.65;;;;;;;26.17;60.55;100616.08;1729641;82;21069;-49
2021/08/07 03:47:47;;;;;;;6.08;5.25;;;;;;;26.14;60.69;100622.52;1733804;82;21515;-50
2021/08/07 03:50:14;;;;;;;6.87;5.35;;;;;;;26.14;60.93;100632.34;1728675;81;21561;-49
2021/08/07 03:52:42;;;;;;;4.72;4.28;;;;;;;26.13;60.49;100630.66;1720755;82;21054;-49
2021/08/07 03:55:10;;;;;;;6.37;5.00;;;;;;;26.10;60.12;100643.77;1735901;82;20994;-49
2021/08/07 03:58:01;;;;;;;5.40;4.50;;;;;;;26.08;60.21;100635.55;1732318;82;21057;-49
2021/08/07 04:00:44;;;;;;;4.95;4.37;;;;;;;26.09;60.29;100647.91;1683800;83;21058;-49
2021/08/07 04:03:13;;;;;;;4.87;4.37;;;;;;;26.09;60.01;100650.58;1722343;82;20986;-49
2021/08/07 04:05:40;;;;;;;5.53;4.40;;;;;;;26.08;59.65;100663.55;1730759;82;21524;-49
2021/08/07 04:08:09;;;;;;;5.75;4.17;;;;;;;26.06;59.50;100664.14;1733888;82;21074;-49
2021/08/07 04:10:38;;;;;;;5.77;4.57;;;;;;;26.05;59.53;100666.46;1735896;82;21014;-50
2021/08/07 04:13:07;;;;;;;6.53;4.62;;;;;;;26.03;59.72;100661.24;1731601;82;21011;-49
2021/08/07 04:15:36;;;;;;;7.78;4.28;;;;;;;26.04;59.76;100664.77;1728453;82;21053;-49
2021/08/07 04:18:03;;;;;;;6.20;4.72;;;;;;;26.01;59.63;100663.71;1732489;82;21038;-49
2021/08/07 04:20:32;;;;;;;4.85;3.98;;;;;;;25.99;59.58;100670.48;1729200;82;21085;-49
2021/08/07 04:22:59;;;;;;;6.65;4.87;;;;;;;25.97;59.50;100664.92;1734115;82;21281;-49
2021/08/07 04:25:28;;;;;;;7.83;4.90;;;;;;;25.92;59.67;100669.34;1732508;82;21038;-50
2021/08/07 04:27:55;;;;;;;7.33;5.12;;;;;;;25.89;59.94;100669.59;1734313;82;21073;-49
2021/08/07 04:30:22;;;;;;;8.68;5.05;;;;;;;25.88;60.25;100673.73;1737404;82;21073;-49
2021/08/07 04:32:50;;;;;;;6.47;5.03;;;;;;;25.88;60.14;100675.92;1731572;82;21037;-49
2021/08/07 04:35:17;;;;;;;11.05;4.97;;;;;;;25.87;60.17;100673.37;1725905;82;21065;-49
2021/08/07 04:37:54;;;;;;;8.90;5.47;;;;;;;25.85;60.24;100674.84;1736493;82;21050;-50
2021/08/07 04:40:32;;;;;;;7.42;5.78;;;;;;;25.86;60.37;100685.02;1733450;81;21042;-50
2021/08/07 04:43:00;;;;;;;5.22;4.72;;;;;;;25.83;60.91;100680.31;1730089;82;21084;-51
2021/08/07 04:45:28;;;;;;;7.12;4.92;;;;;;;25.84;60.66;100684.66;1728248;82;21045;-49
2021/08/07 04:48:01;;;;;;;5.45;4.50;;;;;;;25.88;60.53;100692.40;1688641;83;21042;-50
2021/08/07 04:50:32;;;;;;;5.70;5.20;;;;;;;25.84;60.50;100697.98;1684717;84;21553;-50
2021/08/07 04:53:04;;;;;;;5.78;4.37;;;;;;;25.87;60.59;100704.87;1708573;83;21086;-49
2021/08/07 04:55:34;;;;;;;5.47;4.60;;;;;;;25.88;60.25;100709.73;1695364;83;21099;-50
2021/08/07 04:58:03;;;;;;;6.28;4.22;;;;;;;25.88;60.24;100725.73;1678097;84;21046;-49
2021/08/07 05:00:30;;;;;;;6.35;4.62;;;;;;;25.88;59.68;100739.05;1680263;83;21066;-50
2021/08/07 05:02:59;;;;;;;6.90;5.28;;;;;;;25.86;60.15;100749.86;1673168;85;21212;-50
2021/08/07 05:05:28;;;;;;;5.53;5.03;;;;;;;25.87;60.66;100760.86;1651450;86;21079;-51
2021/08/07 05:07:56;;;;;;;5.47;4.87;;;;;;;25.89;60.74;100768.72;1676618;83;21017;-52
2021/08/07 05:10:24;;;;;;;7.17;5.40;;;;;;;25.89;60.65;100776.72;1679808;85;21548;-51
2021/08/07 05:12:51;;;;;;;6.20;5.10;;;;;;;25.90;60.34;100781.09;1678660;84;21195;-51
2021/08/07 05:15:20;;;;;;;8.38;5.58;;;;;;;25.89;60.60;100779.38;1681617;84;21074;-50
2021/08/07 05:17:48;;;;;;;5.87;5.35;;;;;;;25.88;60.75;100791.04;1679640;85;21030;-50
2021/08/07 05:20:18;;;;;;;7.05;5.30;;;;;;;25.84;60.95;100796.62;1683766;85;21015;-50
2021/08/07 05:22:46;;;;;;;5.75;5.05;;;;;;;25.83;61.13;100802.94;1671763;84;21501;-50
2021/08/07 05:25:14;;;;;;;7.95;5.65;;;;;;;25.84;61.07;100804.61;1683046;84;21074;-50
2021/08/07 05:27:41;;;;;;;8.30;5.55;;;;;;;25.84;60.93;100815.79;1655624;85;21686;-50
2021/08/07 05:30:09;;;;;;;8.28;5.92;;;;;;;25.83;60.80;100818.94;1679902;85;21121;-50
2021/08/07 05:32:37;;;;;;;9.93;7.70;;;;;;;25.81;61.15;100818.22;1638984;86;21570;-50
2021/08/07 05:35:07;;;;;;;14.60;8.53;;;;;;;25.81;61.58;100821.36;1677553;84;21591;-51
2021/08/07 05:37:40;;;;;;;11.28;7.92;;;;;;;25.80;61.99;100829.02;1661768;85;21090;-50
2021/08/07 05:40:10;;;;;;;8.50;7.50;;;;;;;25.78;62.12;100840.30;1686399;84;21501;-50
2021/08/07 05:42:39;;;;;;;8.80;7.33;;;;;;;25.75;62.04;100849.38;1639918;85;21581;-50
2021/08/07 05:45:07;;;;;;;14.23;7.17;;;;;;;25.71;62.32;100851.95;1689944;84;21038;-50
2021/08/07 05:47:34;;;;;;;9.70;7.55;;;;;;;25.70;62.41;100853.38;1693940;83;21557;-51
2021/08/07 05:50:03;;;;;;;7.78;6.20;;;;;;;25.66;62.44;100862.12;1687048;83;21491;-51
2021/08/07 05:52:30;;;;;;;7.30;5.85;;;;;;;25.60;61.67;100846.65;1690673;84;21538;-51
2021/08/07 05:55:01;;;;;;;6.47;5.83;;;;;;;25.50;61.20;100851.05;1729203;82;21478;-51
2021/08/07 05:57:29;;;;;;;6.08;5.47;;;;;;;25.39;61.34;100845.70;1731658;82;21560;-50
2021/08/07 05:59:56;;;;;;;7.37;5.97;;;;;;;25.31;61.65;100856.14;1734278;82;21505;-50
2021/08/07 06:02:23;;;;;;;10.05;5.45;;;;;;;25.25;61.65;100869.95;1734749;82;21051;-52
2021/08/07 06:04:52;;;;;;;6.70;5.58;;;;;;;25.19;61.87;100871.79;1690414;83;21059;-51
2021/08/07 06:07:20;;;;;;;6.35;5.45;;;;;;;25.19;62.12;100882.91;1689637;83;21073;-52
2021/08/07 06:09:49;;;;;;;6.00;5.40;;;;;;;25.20;62.17;100880.63;1689770;84;21094;-51
2021/08/07 06:12:16;;;;;;;7.17;5.90;;;;;;;25.19;61.88;100875.78;1692249;83;21566;-49
2021/08/07 06:14:44;;;;;;;8.43;5.60;;;;;;;25.17;61.91;100872.39;1705833;83;21125;-52
2021/08/07 06:17:13;;;;;;;5.92;5.42;;;;;;;25.18;61.99;100870.59;1674419;84;21030;-50
2021/08/07 06:19:43;;;;;;;7.55;6.15;;;;;;;25.16;61.92;100868.05;1695254;83;21077;-51
2021/08/07 06:22:10;;;;;;;7.62;6.05;;;;;;;25.16;62.19;100869.86;1687110;84;21053;-50
2021/08/07 06:24:37;;;;;;;8.35;6.15;;;;;;;25.15;62.04;100870.81;1691655;83;21078;-50
2021/08/07 06:27:06;;;;;;;7.40;6.37;;;;;;;25.13;62.20;100868.29;1728309;82;21501;-50
2021/08/07 06:29:33;;;;;;;9.10;6.15;;;;;;;25.11;62.38;100871.56;1727786;82;21046;-50
2021/08/07 06:32:02;;;;;;;8.53;6.37;;;;;;;25.10;62.34;100868.52;1731236;82;21031;-50
2021/08/07 06:34:31;;;;;;;8.78;6.90;;;;;;;25.10;62.46;100867.19;1732820;82;21053;-49
2021/08/07 06:36:58;;;;;;;7.05;6.35;;;;;;;25.09;62.72;100869.50;1731699;82;21100;-49
2021/08/07 06:39:26;;;;;;;9.80;6.65;;;;;;;25.11;62.78;100868.89;1731546;82;21117;-49
2021/08/07 06:41:53;;;;;;;7.35;6.53;;;;;;;25.11;62.59;100863.57;1728298;82;21597;-49
2021/08/07 06:44:21;;;;;;;11.15;6.90;;;;;;;25.11;62.58;100867.56;1721821;82;21049;-49
2021/08/07 06:46:49;;;;;;;8.80;7.40;;;;;;;25.11;62.49;100865.38;1729627;81;21069;-52
2021/08/07 06:49:15;;;;;;;8.28;7.33;;;;;;;25.07;62.58;100856.80;1735618;82;21022;-50
2021/08/07 06:51:43;;;;;;;8.58;7.00;;;;;;;25.06;62.64;100862.25;1731225;82;21016;-51
2021/08/07 06:54:10;;;;;;;8.70;7.28;;;;;;;25.05;62.90;100860.06;1735178;82;21023;-50
2021/08/07 06:56:38;;;;;;;7.05;6.35;;;;;;;25.06;62.83;100864.41;1735074;82;21490;-51
2021/08/07 06:59:06;;;;;;;9.63;6.62;;;;;;;25.08;62.93;100862.47;1734822;82;20983;-50
2021/08/07 07:01:34;;;;;;;9.53;7.00;;;;;;;25.07;62.75;100855.47;1731525;82;21027;-49
2021/08/07 07:04:01;;;;;;;8.15;7.35;;;;;;;25.06;62.92;100844.95;1731305;82;21074;-50
2021/08/07 07:06:27;;;;;;;7.92;7.10;;;;;;;25.03;62.88;100840.70;1690329;84;20999;-50
2021/08/07 07:08:56;;;;;;;9.58;7.50;;;;;;;25.01;63.01;100845.31;1696587;83;21135;-50
2021/08/07 07:11:23;;;;;;;7.50;6.72;;;;;;;25.01;62.76;100829.34;1695453;83;21003;-49
2021/08/07 07:13:51;;;;;;;8.18;7.25;;;;;;;24.97;62.87;100825.23;1705525;83;21082;-50
2021/08/07 07:16:18;;;;;;;8.23;6.70;;;;;;;24.97;63.03;100811.92;1693096;84;21030;-51
2021/08/07 07:18:46;;;;;;;7.58;6.87;;;;;;;24.96;63.13;100810.21;1692380;83;21094;-49
2021/08/07 07:21:13;;;;;;;7.70;6.87;;;;;;;24.97;63.11;100810.59;1682722;83;21080;-50
2021/08/07 07:23:40;;;;;;;6.70;6.10;;;;;;;24.97;63.08;100795.95;1734900;82;21574;-49
2021/08/07 07:26:07;;;;;;;7.30;6.60;;;;;;;24.99;62.95;100792.67;1732735;82;21057;-49
2021/08/07 07:28:35;;;;;;;8.65;6.87;;;;;;;25.00;63.03;100791.69;1729397;82;21014;-50
2021/08/07 07:31:02;;;;;;;8.60;6.42;;;;;;;25.01;63.04;100784.94;1686711;84;21030;-50
2021/08/07 07:33:30;;;;;;;9.53;6.42;;;;;;;25.03;62.70;100772.81;1687127;84;21082;-50
2021/08/07 07:35:58;;;;;;;7.70;6.58;;;;;;;25.04;62.83;100775.83;1692472;83;21034;-50
2021/08/07 07:38:25;;;;;;;8.05;7.25;;;;;;;25.05;62.63;100770.88;1702741;83;21058;-50
2021/08/07 07:40:54;;;;;;;8.88;6.97;;;;;;;25.03;62.59;100761.69;1693206;83;21065;-50
2021/08/07 07:43:21;;;;;;;7.87;7.00;;;;;;;25.03;62.78;100758.17;1731173;81;21037;-50
2021/08/07 07:45:50;;;;;;;8.90;7.35;;;;;;;25.00;62.91;100749.95;1731639;82;21690;-50
2021/08/07 07:48:17;;;;;;;9.33;7.12;;;;;;;25.02;63.19;100737.83;1730639;82;21026;-50
2021/08/07 07:50:46;;;;;;;7.92;7.25;;;;;;;25.03;63.19;100752.84;1728129;82;21544;-50
2021/08/07 07:53:13;;;;;;;9.83;7.58;;;;;;;25.07;63.45;100762.27;1729310;82;21028;-50
2021/08/07 07:55:41;;;;;;;7.83;6.70;;;;;;;25.11;63.32;100764.20;1692881;83;21046;-50
2021/08/07 07:58:08;;;;;;;7.12;6.50;;;;;;;25.14;63.60;100760.81;1695578;82;20975;-50
2021/08/07 08:00:36;;;;;;;9.35;8.13;;;;;;;25.18;63.02;100770.25;1732144;81;21030;-50
2021/08/07 08:03:03;;;;;;;7.72;6.97;;;;;;;25.20;62.82;100762.98;1724769;82;21552;-50
2021/08/07 08:05:38;;;;;;;7.12;6.47;;;;;;;25.23;62.69;100764.03;1725280;82;21551;-50
2021/08/07 08:08:06;;;;;;;7.78;7.10;;;;;;;25.26;63.13;100774.45;1728622;81;21026;-50
2021/08/07 08:10:36;;;;;;;7.50;6.80;;;;;;;25.34;62.97;100794.64;1691427;82;21054;-50
2021/08/07 08:13:05;;;;;;;7.70;6.90;;;;;;;25.43;63.23;100796.56;1694356;83;21065;-50
2021/08/07 08:15:37;;;;;;;7.35;6.65;;;;;;;25.50;62.91;100797.76;1699696;83;21061;-50
2021/08/07 08:18:04;;;;;;;6.67;6.08;;;;;;;25.61;62.62;100797.72;1687647;84;21498;-49
2021/08/07 08:20:32;;;;;;;13.48;6.65;;;;;;;25.69;62.47;100784.59;1686771;84;21010;-50
2021/08/07 08:22:59;;;;;;;5.87;5.37;;;;;;;25.86;62.00;100775.66;1691110;83;21014;-49
2021/08/07 08:25:29;;;;;;;6.42;5.90;;;;;;;25.95;61.19;100766.38;1694049;84;21149;-49
2021/08/07 08:27:56;;;;;;;6.25;5.72;;;;;;;26.03;61.03;100775.08;1692084;83;21055;-49
2021/08/07 08:30:24;;;;;;;5.75;5.30;;;;;;;26.08;60.45;100776.88;1688992;83;21550;-50
2021/08/07 08:32:50;;;;;;;5.95;5.28;;;;;;;26.12;59.78;100782.31;1693631;83;21017;-50
2021/08/07 08:35:18;;;;;;;5.55;5.00;;;;;;;26.15;59.33;100783.39;1739992;82;21109;-49
2021/08/07 08:37:47;;;;;;;5.47;4.67;;;;;;;26.18;59.40;100775.11;1690777;83;21136;-48
2021/08/07 08:40:15;;;;;;;8.95;5.45;;;;;;;26.19;59.36;100755.48;1649895;86;21491;-49
2021/08/07 08:42:42;;;;;;;5.33;4.83;;;;;;;26.25;59.20;100764.28;1737282;82;21530;-49
2021/08/07 08:45:10;;;;;;;5.25;4.75;;;;;;;26.29;59.00;100779.05;1693274;83;21023;-49
2021/08/07 08:47:40;;;;;;;5.40;4.90;;;;;;;26.31;58.20;100794.42;1700803;83;21094;-50
2021/08/07 08:50:09;;;;;;;5.55;4.95;;;;;;;26.32;57.91;100796.09;1688996;83;21104;-51
2021/08/07 08:52:38;;;;;;;6.45;4.70;;;;;;;26.34;57.71;100788.80;1667359;85;21080;-50
2021/08/07 08:55:07;;;;;;;5.10;4.58;;;;;;;26.36;57.51;100774.84;1701676;84;21097;-50
2021/08/07 08:57:35;;;;;;;5.00;4.50;;;;;;;26.39;57.46;100762.59;1695860;83;21518;-50
2021/08/07 09:00:05;;;;;;;5.22;4.28;;;;;;;26.42;56.84;100755.16;1687284;84;21031;-50
2021/08/07 09:02:32;;;;;;;5.47;5.00;;;;;;;26.44;56.71;100761.20;1691916;83;21041;-50
2021/08/07 09:04:59;;;;;;;7.37;5.03;;;;;;;26.46;57.33;100777.09;1690970;83;22064;-49
2021/08/07 09:07:26;;;;;;;5.30;4.62;;;;;;;26.50;56.77;100775.84;1689160;84;21013;-50
2021/08/07 09:09:55;;;;;;;5.37;4.33;;;;;;;26.53;56.66;100798.25;1688619;83;21023;-50
2021/08/07 09:12:45;;;;;;;6.15;4.12;;;;;;;26.55;56.11;100807.81;1659639;85;21149;-49
2021/08/07 09:15:40;;;;;;;4.58;4.17;;;;;;;26.54;55.48;100822.12;1681400;83;21062;-49
2021/08/07 09:18:24;;;;;;;7.25;3.92;;;;;;;26.49;54.75;100823.51;1691273;83;21578;-50
2021/08/07 09:20:54;;;;;;;4.67;3.60;;;;;;;26.46;55.20;100822.45;1683697;84;21113;-50
2021/08/07 09:23:33;;;;;;;3.27;3.00;;;;;;;26.44;54.67;100832.42;1692935;83;21542;-49
2021/08/07 09:26:23;;;;;;;4.10;3.47;;;;;;;26.40;55.11;100837.16;1628539;86;21105;-49
2021/08/07 09:28:57;;;;;;;3.02;2.83;;;;;;;26.41;54.51;100833.52;1649641;84;21086;-50
2021/08/07 09:31:26;;;;;;;3.27;2.70;;;;;;;26.38;54.63;100838.26;1658780;85;21057;-50
2021/08/07 09:34:16;;;;;;;3.50;3.20;;;;;;;26.41;54.23;100836.67;1667915;84;21027;-49
2021/08/07 09:36:48;;;;;;;5.72;2.80;;;;;;;26.46;54.60;100831.80;1623946;87;21086;-51
2021/08/07 09:39:17;;;;;;;4.35;3.27;;;;;;;26.48;54.79;100829.84;1581260;89;21865;-50
2021/08/07 09:41:57;;;;;;;3.12;2.83;;;;;;;26.50;54.39;100834.55;1548978;89;21065;-51
2021/08/07 09:44:24;;;;;;;3.80;2.77;;;;;;;26.53;54.31;100833.80;1511998;93;21156;-49
2021/08/07 09:47:07;;;;;;;3.83;2.70;;;;;;;26.55;54.09;100837.66;1521965;93;21100;-50
2021/08/07 09:49:38;;;;;;;7.10;3.30;;;;;;;26.62;54.83;100844.16;1515973;93;21069;-50
2021/08/07 09:52:06;;;;;;;3.70;2.50;;;;;;;26.69;54.04;100850.64;1520984;93;21085;-50
2021/08/07 09:54:40;;;;;;;5.53;3.10;;;;;;;26.74;54.43;100855.62;1518571;93;21130;-50
2021/08/07 09:57:10;;;;;;;3.27;2.98;;;;;;;26.81;54.22;100849.59;1507631;93;21122;-49
2021/08/07 09:59:47;;;;;;;2.98;2.70;;;;;;;26.85;54.04;100853.72;1515212;93;21081;-49
2021/08/07 10:02:32;;;;;;;3.10;2.80;;;;;;;26.86;54.70;100858.06;1521040;92;21088;-49
2021/08/07 10:05:00;;;;;;;6.00;3.15;;;;;;;26.90;54.08;100856.81;1474819;96;21061;-49
2021/08/07 10:07:28;;;;;;;5.58;2.90;;;;;;;26.92;53.44;100865.53;1472493;96;21612;-50
2021/08/07 10:10:22;;;;;;;5.70;2.65;;;;;;;26.93;54.14;100871.24;1470346;96;21147;-49
2021/08/07 10:12:51;;;;;;;3.30;2.35;;;;;;;26.95;53.90;100865.28;1478081;95;21163;-50
2021/08/07 10:15:20;;;;;;;6.28;2.42;;;;;;;26.98;52.64;100870.33;1500655;92;21583;-50
2021/08/07 10:17:47;;;;;;;2.50;2.27;;;;;;;27.00;51.86;100868.37;1536351;92;21107;-49
2021/08/07 10:20:14;;;;;;;3.72;2.10;;;;;;;27.03;50.62;100871.27;1498619;94;21124;-49
2021/08/07 10:22:41;;;;;;;2.77;2.00;;;;;;;27.06;50.50;100873.17;1533136;92;21066;-49
2021/08/07 10:25:10;;;;;;;2.27;1.80;;;;;;;27.08;50.48;100873.88;1534346;92;21149;-48
2021/08/07 10:27:37;;;;;;;6.33;2.55;;;;;;;27.15;51.12;100875.03;1546407;92;21057;-49
2021/08/07 10:30:11;;;;;;;5.05;2.52;;;;;;;27.22;50.84;100878.84;1532357;92;21121;-49
2021/08/07 10:33:02;;;;;;;2.75;2.17;;;;;;;27.28;51.22;100882.81;1531432;92;21167;-49
2021/08/07 10:35:29;;;;;;;5.50;2.50;;;;;;;27.34;51.20;100887.64;1547207;89;21061;-49
2021/08/07 10:37:58;;;;;;;2.67;2.05;;;;;;;27.37;49.43;100887.34;1579823;89;21150;-49
2021/08/07 10:40:26;;;;;;;2.77;2.00;;;;;;;27.38;50.29;100897.92;1574169;88;21519;-49
2021/08/07 10:42:54;;;;;;;2.55;1.95;;;;;;;27.43;50.24;100904.68;1592093;89;21112;-49
2021/08/07 10:45:22;;;;;;;2.35;1.80;;;;;;;27.50;50.04;100897.30;1611973;88;21039;-49
2021/08/07 10:47:50;;;;;;;1.90;1.70;;;;;;;27.64;49.88;100905.40;1609576;88;21110;-50
2021/08/07 10:50:35;;;;;;;2.10;1.90;;;;;;;27.64;49.88;100905.40;1590584;89;21704;-49
2021/08/07 10:53:23;;;;;;;2.90;2.40;;;;;;;27.69;49.53;100902.69;1594621;89;21039;-49
2021/08/07 10:55:53;;;;;;;2.47;1.90;;;;;;;27.72;48.60;100894.88;1606885;89;21551;-49
2021/08/07 10:58:44;;;;;;;7.12;2.02;;;;;;;27.70;48.44;100888.83;1572097;90;21628;-49
2021/08/07 11:01:27;;;;;;;3.45;2.83;;;;;;;27.69;48.35;100895.15;1566130;88;21574;-48
2021/08/07 11:04:08;;;;;;;5.58;3.27;;;;;;;27.64;48.04;100901.39;1646797;85;21047;-48
2021/08/07 11:06:46;;;;;;;2.50;2.30;;;;;;;27.57;48.40;100907.81;1638652;86;21082;-48
2021/08/07 11:09:31;;;;;;;2.10;2.00;;;;;;;27.57;48.40;100907.81;1607778;88;21174;-49
2021/08/07 11:12:13;;;;;;;2.30;2.10;;;;;;;27.59;48.37;100925.03;1598146;88;21174;-49
2021/08/07 11:14:54;;;;;;;1.87;1.62;;;;;;;27.56;47.66;100922.63;1632008;86;21056;-49
2021/08/07 11:17:30;;;;;;;1.50;1.40;;;;;;;27.56;46.60;100917.28;1579660;90;21204;-50
2021/08/07 11:22:44;;;;;;;1.85;1.70;;;;;;;27.63;46.88;100933.13;1522752;92;21612;-49
2021/08/07 11:25:21;;;;;;;1.60;1.45;;;;;;;27.63;46.88;100933.13;1525077;92;21228;-49
2021/08/07 11:27:56;;;;;;;2.98;1.90;;;;;;;27.68;47.18;100932.20;1494966;94;21202;-50
2021/08/07 11:30:29;;;;;;;2.22;1.70;;;;;;;27.68;47.18;100932.20;1456917;97;21097;-50
2021/08/07 11:33:04;;;;;;;1.75;1.60;;;;;;;27.72;47.96;100937.15;1479027;95;21119;-50
2021/08/07 11:35:38;;;;;;;2.45;2.25;;;;;;;27.75;47.07;100940.05;1466208;96;21127;-49
2021/08/07 11:38:13;;;;;;;2.20;1.77;;;;;;;27.78;47.83;100941.13;1470918;95;21130;-49
2021/08/07 11:40:49;;;;;;;2.92;1.98;;;;;;;27.86;48.14;100943.95;1449478;97;21200;-50
2021/08/07 11:43:28;;;;;;;2.40;1.95;;;;;;;27.94;47.56;100937.40;1458149;96;22321;-49